Time;durP1;ratioP1;P1;durP2;ratioP2;P2;SDS_P1;SDS_P2;PMS_P1;PMS_P2;Temp;Humidity;BMP_temperature;BMP_pressure;BME280_temperature;BME280_humidity;BME280_pressure;Samples;Min_cycle;Max_cycle;Signal;HPM_P1;HPM_P2
2022/05/28 00:01:11;;;;;;;1.10;1.00;;;20.70;41.60;;;;;;4997493;28;20842;-58
2022/05/28 00:03:37;;;;;;;0.90;0.90;;;20.70;41.50;;;;;;4997358;28;20284;-59
2022/05/28 00:06:12;;;;;;;1.10;1.00;;;20.70;41.50;;;;;;5006659;28;20536;-59
2022/05/28 00:08:38;;;;;;;1.10;1.00;;;20.70;41.50;;;;;;4999726;28;20497;-58
2022/05/28 00:11:11;;;;;;;1.40;1.20;;;20.70;41.50;;;;;;5000249;28;20446;-59
2022/05/28 00:13:37;;;;;;;1.00;0.90;;;20.70;41.50;;;;;;5003309;28;20424;-58
2022/05/28 00:16:03;;;;;;;1.10;1.00;;;20.70;41.40;;;;;;4975025;28;21006;-58
2022/05/28 00:18:28;;;;;;;1.87;1.20;;;20.70;41.50;;;;;;5003467;28;20233;-58
2022/05/28 00:20:54;;;;;;;1.10;1.00;;;20.70;41.40;;;;;;5001399;28;20217;-58
2022/05/28 00:23:19;;;;;;;1.30;1.20;;;20.70;41.30;;;;;;4994720;28;20216;-59
2022/05/28 00:25:45;;;;;;;1.47;1.10;;;20.70;41.40;;;;;;5005939;28;20212;-58
2022/05/28 00:28:11;;;;;;;1.10;1.00;;;20.70;41.40;;;;;;5000815;28;20306;-58
2022/05/28 00:30:37;;;;;;;1.53;1.10;;;20.70;41.40;;;;;;4996856;28;20212;-58
2022/05/28 00:33:02;;;;;;;2.20;1.10;;;20.70;41.30;;;;;;5002940;28;20224;-59
2022/05/28 00:35:28;;;;;;;1.00;0.90;;;20.70;41.40;;;;;;4997486;28;20443;-58
2022/05/28 00:37:53;;;;;;;1.00;0.90;;;20.70;41.30;;;;;;5000413;28;20629;-58
2022/05/28 00:40:23;;;;;;;1.00;0.87;;;20.70;42.10;;;;;;5001936;28;20289;-58
2022/05/28 00:42:49;;;;;;;1.17;0.97;;;20.70;41.30;;;;;;4996054;28;20220;-59
2022/05/28 00:45:15;;;;;;;1.10;1.00;;;20.70;41.30;;;;;;5001039;28;20797;-59
2022/05/28 00:47:47;;;;;;;1.10;1.00;;;20.70;41.30;;;;;;5000991;28;20430;-58
2022/05/28 00:50:14;;;;;;;1.73;1.00;;;20.70;41.20;;;;;;5000496;28;20543;-59
2022/05/28 00:52:40;;;;;;;1.20;1.00;;;20.70;41.30;;;;;;4981433;28;20418;-59
2022/05/28 00:55:07;;;;;;;1.30;1.00;;;20.70;41.20;;;;;;4978032;28;20447;-58
2022/05/28 00:57:32;;;;;;;1.17;1.07;;;20.70;41.20;;;;;;4977626;28;20498;-58
2022/05/28 00:59:58;;;;;;;1.30;1.00;;;20.70;41.20;;;;;;4988080;28;20522;-58
2022/05/28 01:02:48;;;;;;;1.53;1.20;;;20.70;41.20;;;;;;4978180;28;20644;-58
2022/05/28 01:05:41;;;;;;;1.17;1.07;;;20.70;41.20;;;;;;4990676;28;20661;-59
2022/05/28 01:08:18;;;;;;;1.23;1.03;;;20.70;41.20;;;;;;4997218;28;20446;-58
2022/05/28 01:11:07;;;;;;;1.20;1.00;;;20.60;41.20;;;;;;4996685;28;20449;-60
2022/05/28 01:13:35;;;;;;;1.63;1.00;;;20.70;41.20;;;;;;5003911;28;20514;-59
2022/05/28 01:16:09;;;;;;;1.10;1.00;;;20.70;41.20;;;;;;4993077;28;20420;-59
2022/05/28 01:19:16;;;;;;;1.20;1.10;;;20.70;41.20;;;;;;4995238;28;20459;-59
2022/05/28 01:21:53;;;;;;;1.00;0.90;;;20.70;41.20;;;;;;5022642;28;20530;-59
2022/05/28 01:24:40;;;;;;;1.10;1.00;;;20.60;41.20;;;;;;5004757;28;20423;-59
2022/05/28 01:27:14;;;;;;;1.43;1.07;;;20.70;41.20;;;;;;5007613;28;20424;-59
2022/05/28 01:29:54;;;;;;;2.60;1.27;;;20.70;41.20;;;;;;4995182;28;20553;-58
2022/05/28 01:32:23;;;;;;;1.60;1.50;;;20.70;41.20;;;;;;5005128;28;20977;-59
2022/05/28 01:34:49;;;;;;;1.33;1.23;;;20.60;41.10;;;;;;4998597;28;20436;-58
2022/05/28 01:37:17;;;;;;;1.60;1.00;;;20.70;41.20;;;;;;4995858;28;20449;-59
2022/05/28 01:39:48;;;;;;;1.43;1.03;;;20.60;41.10;;;;;;5004035;28;20457;-58
2022/05/28 01:42:15;;;;;;;1.17;1.00;;;20.60;41.10;;;;;;4982078;28;20464;-58
2022/05/28 01:44:42;;;;;;;1.20;0.90;;;20.60;41.10;;;;;;5001972;28;20768;-58
2022/05/28 01:47:10;;;;;;;1.20;1.10;;;20.60;41.10;;;;;;5002669;28;20448;-59
2022/05/28 01:49:36;;;;;;;1.00;0.90;;;20.70;41.10;;;;;;4994337;28;20948;-58
2022/05/28 01:52:03;;;;;;;1.30;1.20;;;20.70;41.10;;;;;;5002003;28;20523;-58
2022/05/28 01:54:34;;;;;;;1.10;1.00;;;20.70;41.10;;;;;;5006194;28;20506;-59
2022/05/28 01:57:00;;;;;;;1.10;0.97;;;20.60;41.10;;;;;;4999395;28;20465;-59
2022/05/28 01:59:30;;;;;;;1.40;1.30;;;20.60;41.00;;;;;;5002016;28;20897;-58
2022/05/28 02:01:58;;;;;;;2.00;1.00;;;20.70;41.10;;;;;;4997439;28;20474;-58
2022/05/28 02:04:25;;;;;;;2.73;1.10;;;20.70;41.10;;;;;;4998748;28;20508;-58
2022/05/28 02:06:50;;;;;;;1.20;1.10;;;20.60;41.00;;;;;;5006806;28;20453;-59
2022/05/28 02:09:20;;;;;;;1.20;1.10;;;20.70;41.00;;;;;;5007880;28;20518;-58
2022/05/28 02:11:50;;;;;;;1.73;1.27;;;20.70;41.00;;;;;;5000270;28;20211;-59
2022/05/28 02:14:26;;;;;;;1.23;1.13;;;20.70;41.00;;;;;;4998061;28;20956;-59
2022/05/28 02:17:02;;;;;;;1.27;1.17;;;20.70;41.70;;;;;;4995412;28;20477;-58
2022/05/28 02:20:04;;;;;;;1.20;1.00;;;20.70;40.90;;;;;;4996825;28;20589;-58
2022/05/28 02:22:30;;;;;;;1.00;0.90;;;20.60;40.90;;;;;;4995147;28;20420;-59
2022/05/28 02:25:00;;;;;;;1.30;1.20;;;20.70;40.90;;;;;;4996136;28;20508;-58
2022/05/28 02:27:27;;;;;;;1.37;1.27;;;20.60;40.80;;;;;;4995792;28;20227;-59
2022/05/28 02:29:52;;;;;;;1.20;1.10;;;20.70;41.00;;;;;;4993625;28;20526;-58
2022/05/28 02:32:22;;;;;;;2.20;1.00;;;20.60;40.80;;;;;;4997613;28;21005;-58
2022/05/28 02:34:50;;;;;;;1.20;1.10;;;20.60;40.80;;;;;;4993687;28;20223;-59
2022/05/28 02:37:19;;;;;;;1.50;1.30;;;20.70;41.70;;;;;;4997127;28;20454;-58
2022/05/28 02:39:44;;;;;;;1.40;1.30;;;20.60;40.80;;;;;;4991393;28;21167;-59
2022/05/28 02:42:10;;;;;;;1.20;1.10;;;20.70;40.90;;;;;;4991360;28;20454;-58
2022/05/28 02:44:35;;;;;;;1.73;1.10;;;20.70;40.90;;;;;;5001334;28;20562;-59
2022/05/28 02:47:01;;;;;;;1.73;1.37;;;20.70;40.90;;;;;;5000806;28;20220;-59
2022/05/28 02:49:27;;;;;;;1.20;1.10;;;20.60;40.70;;;;;;4993933;28;20737;-59
2022/05/28 02:51:53;;;;;;;1.57;1.10;;;20.70;40.80;;;;;;5000895;28;20756;-59
2022/05/28 02:54:19;;;;;;;2.83;1.00;;;20.70;40.80;;;;;;5000977;28;20224;-58
2022/05/28 02:56:45;;;;;;;1.30;1.20;;;20.70;40.80;;;;;;4992158;28;20212;-59
2022/05/28 02:59:11;;;;;;;1.47;1.30;;;20.60;40.70;;;;;;5004710;28;20492;-58
2022/05/28 03:01:37;;;;;;;1.20;1.10;;;20.60;40.70;;;;;;4997216;28;20934;-58
2022/05/28 03:04:05;;;;;;;1.63;1.30;;;20.60;40.70;;;;;;4997770;28;20215;-58
2022/05/28 03:06:31;;;;;;;1.87;1.37;;;20.60;40.60;;;;;;5002367;28;20499;-59
2022/05/28 03:08:57;;;;;;;1.83;1.03;;;20.60;40.60;;;;;;4995657;28;20457;-58
2022/05/28 03:11:23;;;;;;;1.50;1.30;;;20.60;40.60;;;;;;4997770;28;20230;-59
2022/05/28 03:13:48;;;;;;;1.10;1.00;;;20.70;40.70;;;;;;5001227;28;20749;-58
2022/05/28 03:16:14;;;;;;;1.20;1.10;;;20.60;40.50;;;;;;4994556;28;20224;-59
2022/05/28 03:18:40;;;;;;;1.20;1.10;;;20.60;40.60;;;;;;4978209;28;20236;-59
2022/05/28 03:21:07;;;;;;;1.30;1.20;;;20.60;40.60;;;;;;4981696;28;20454;-59
2022/05/28 03:23:33;;;;;;;1.90;1.50;;;20.60;40.50;;;;;;4973994;28;20447;-58
2022/05/28 03:26:19;;;;;;;1.23;1.13;;;20.70;40.60;;;;;;4973447;28;20462;-58
2022/05/28 03:28:45;;;;;;;1.30;1.20;;;20.60;40.50;;;;;;4999044;28;20473;-59
2022/05/28 03:31:11;;;;;;;1.10;1.07;;;20.60;40.50;;;;;;4995807;28;20439;-58
2022/05/28 03:33:37;;;;;;;2.70;1.37;;;20.60;40.50;;;;;;4997493;28;20499;-58
2022/05/28 03:36:04;;;;;;;1.60;1.23;;;20.60;40.50;;;;;;4995937;28;20684;-58
2022/05/28 03:38:30;;;;;;;1.57;1.30;;;20.60;40.40;;;;;;4996782;28;20278;-58
2022/05/28 03:40:58;;;;;;;1.60;1.30;;;20.60;40.40;;;;;;4995814;28;20785;-59
2022/05/28 03:43:24;;;;;;;1.30;1.20;;;20.60;40.40;;;;;;4993658;28;20455;-58
2022/05/28 03:45:50;;;;;;;1.57;1.20;;;20.60;40.40;;;;;;5000149;28;20865;-59
2022/05/28 03:48:16;;;;;;;1.30;1.13;;;20.60;40.40;;;;;;4994239;28;20473;-59
2022/05/28 03:50:41;;;;;;;2.50;1.33;;;20.60;40.30;;;;;;4996578;28;20545;-58
2022/05/28 03:53:07;;;;;;;1.63;1.10;;;20.60;40.30;;;;;;4994740;28;20251;-58
2022/05/28 03:55:33;;;;;;;1.50;1.40;;;20.60;40.30;;;;;;4992596;28;20221;-58
2022/05/28 03:57:58;;;;;;;2.60;1.40;;;20.60;40.30;;;;;;4993708;28;20327;-59
2022/05/28 04:00:24;;;;;;;1.33;1.20;;;20.60;40.30;;;;;;4992218;28;20213;-58
2022/05/28 04:02:49;;;;;;;1.30;1.20;;;20.60;40.20;;;;;;4992395;28;20656;-58
2022/05/28 04:05:15;;;;;;;1.03;0.93;;;20.60;41.00;;;;;;4994106;28;20280;-59
2022/05/28 04:07:41;;;;;;;1.50;1.30;;;20.60;40.20;;;;;;4993656;28;20225;-58
2022/05/28 04:10:07;;;;;;;2.17;1.30;;;20.60;40.20;;;;;;4993771;28;20604;-58
2022/05/28 04:12:33;;;;;;;1.70;1.20;;;20.60;40.20;;;;;;5000427;28;20227;-58
2022/05/28 04:14:59;;;;;;;1.67;1.40;;;20.60;40.10;;;;;;4996461;28;20455;-58
2022/05/28 04:17:25;;;;;;;1.60;1.50;;;20.60;40.10;;;;;;5001806;28;20330;-59
2022/05/28 04:19:50;;;;;;;1.33;1.23;;;20.60;40.10;;;;;;5002505;28;20220;-58
2022/05/28 04:22:16;;;;;;;1.40;1.20;;;20.60;40.10;;;;;;4995350;28;20238;-59
2022/05/28 04:24:42;;;;;;;1.37;1.10;;;20.60;40.10;;;;;;5003090;28;20620;-58
2022/05/28 04:27:08;;;;;;;2.43;1.47;;;20.60;40.10;;;;;;5004505;28;20394;-58
2022/05/28 04:29:33;;;;;;;1.63;1.53;;;20.60;40.00;;;;;;4973636;28;20232;-58
2022/05/28 04:31:59;;;;;;;1.37;1.20;;;20.60;40.00;;;;;;5000659;28;20211;-58
2022/05/28 04:34:25;;;;;;;1.67;1.40;;;20.60;40.00;;;;;;5004369;28;20302;-58
2022/05/28 04:36:50;;;;;;;1.90;1.70;;;20.60;40.10;;;;;;4998336;28;20575;-58
2022/05/28 04:39:16;;;;;;;2.23;1.43;;;20.60;40.00;;;;;;5003159;28;20257;-59
2022/05/28 04:41:42;;;;;;;2.07;1.20;;;20.60;39.90;;;;;;5001159;28;20626;-58
2022/05/28 04:44:08;;;;;;;1.40;1.30;;;20.60;39.80;;;;;;5001385;28;20227;-58
2022/05/28 04:46:34;;;;;;;1.73;1.40;;;20.60;39.90;;;;;;5002282;28;20391;-58
2022/05/28 04:48:59;;;;;;;1.20;1.10;;;20.60;39.80;;;;;;4999114;28;20910;-58
2022/05/28 04:51:25;;;;;;;1.60;1.30;;;20.60;39.80;;;;;;4996998;28;20246;-59
2022/05/28 04:53:51;;;;;;;1.67;1.57;;;20.60;39.80;;;;;;5002399;28;20225;-58
2022/05/28 04:56:17;;;;;;;2.43;1.50;;;20.60;39.70;;;;;;4998337;28;20678;-58
2022/05/28 04:58:42;;;;;;;1.33;1.23;;;20.60;39.70;;;;;;4998250;28;20663;-58
2022/05/28 05:01:15;;;;;;;1.57;1.47;;;20.60;39.70;;;;;;4999106;28;20732;-58
2022/05/28 05:03:41;;;;;;;1.77;1.50;;;20.60;39.70;;;;;;4995047;28;20216;-58
2022/05/28 05:06:06;;;;;;;1.77;1.43;;;20.70;39.80;;;;;;5000922;28;20917;-58
2022/05/28 05:08:32;;;;;;;2.47;1.83;;;20.70;40.60;;;;;;5012171;28;20224;-58
2022/05/28 05:10:58;;;;;;;1.47;1.37;;;20.60;39.70;;;;;;5003519;28;20328;-58
2022/05/28 05:13:23;;;;;;;1.30;1.20;;;20.60;39.70;;;;;;4996112;28;20229;-58
2022/05/28 05:15:49;;;;;;;1.53;1.43;;;20.60;39.70;;;;;;4996022;28;20282;-59
2022/05/28 05:18:15;;;;;;;1.50;1.30;;;20.60;39.70;;;;;;4999394;28;20439;-59
2022/05/28 05:20:40;;;;;;;1.60;1.50;;;20.70;39.90;;;;;;4997176;28;20216;-58
2022/05/28 05:23:06;;;;;;;1.97;1.40;;;20.70;39.80;;;;;;4993174;28;20690;-58
2022/05/28 05:25:32;;;;;;;1.87;1.77;;;20.70;39.80;;;;;;4998521;28;20216;-58
2022/05/28 05:27:59;;;;;;;2.27;1.30;;;20.70;39.80;;;;;;4992304;28;20307;-58
2022/05/28 05:30:24;;;;;;;1.30;1.20;;;20.60;39.70;;;;;;4995086;28;20420;-57
2022/05/28 05:32:50;;;;;;;1.60;1.30;;;20.70;39.80;;;;;;5003172;28;20457;-58
2022/05/28 05:35:16;;;;;;;2.60;1.43;;;20.60;39.70;;;;;;5004052;28;20223;-60
2022/05/28 05:37:42;;;;;;;3.30;1.80;;;20.60;39.70;;;;;;4998012;28;20709;-59
2022/05/28 05:40:08;;;;;;;2.83;2.33;;;20.60;39.70;;;;;;5004763;28;20215;-59
2022/05/28 05:42:34;;;;;;;2.27;1.50;;;20.70;39.80;;;;;;5006579;28;20309;-59
2022/05/28 05:44:59;;;;;;;2.20;1.40;;;20.70;39.80;;;;;;5003122;28;20451;-59
2022/05/28 05:47:25;;;;;;;1.33;1.20;;;20.70;40.60;;;;;;5004192;28;20225;-59
2022/05/28 05:49:51;;;;;;;1.40;1.20;;;20.70;39.80;;;;;;4999082;28;20271;-58
2022/05/28 05:52:17;;;;;;;2.13;1.43;;;20.70;39.80;;;;;;5001290;28;20227;-58
2022/05/28 05:54:42;;;;;;;2.20;1.47;;;20.70;39.80;;;;;;4999594;28;20231;-58
2022/05/28 05:57:08;;;;;;;2.53;1.30;;;20.70;39.80;;;;;;5002880;28;20445;-58
2022/05/28 05:59:34;;;;;;;1.43;1.13;;;20.70;39.80;;;;;;5003572;28;20253;-58
2022/05/28 06:02:00;;;;;;;2.13;1.50;;;20.70;39.80;;;;;;4999134;28;20216;-58
2022/05/28 06:04:26;;;;;;;1.70;1.60;;;20.70;39.80;;;;;;4998376;28;20308;-58
2022/05/28 06:06:51;;;;;;;1.30;1.03;;;20.70;39.80;;;;;;5001986;28;20225;-58
2022/05/28 06:09:17;;;;;;;1.60;1.50;;;20.70;39.80;;;;;;4999810;28;20218;-59
2022/05/28 06:11:43;;;;;;;2.60;1.30;;;20.70;39.80;;;;;;5001487;28;20228;-59
2022/05/28 06:14:09;;;;;;;2.00;1.20;;;20.70;39.80;;;;;;5006981;28;20427;-58
2022/05/28 06:16:35;;;;;;;2.60;1.40;;;20.70;39.80;;;;;;4995207;28;20243;-59
2022/05/28 06:19:01;;;;;;;1.40;1.30;;;20.70;39.80;;;;;;4997447;28;20579;-58
2022/05/28 06:21:27;;;;;;;2.40;1.60;;;20.70;39.80;;;;;;4999269;28;20472;-59
2022/05/28 06:23:53;;;;;;;1.60;1.30;;;20.70;39.80;;;;;;4994098;28;20445;-61
2022/05/28 06:26:19;;;;;;;1.30;1.20;;;20.70;39.80;;;;;;4999998;28;20453;-61
2022/05/28 06:28:45;;;;;;;1.37;1.20;;;20.70;39.80;;;;;;4997499;28;20459;-59
2022/05/28 06:31:12;;;;;;;1.50;1.10;;;20.70;39.80;;;;;;4997107;28;20226;-59
2022/05/28 06:33:39;;;;;;;1.83;1.73;;;20.70;39.80;;;;;;4997506;28;20224;-59
2022/05/28 06:36:06;;;;;;;0.90;0.90;;;20.70;39.80;;;;;;4994597;28;20504;-58
2022/05/28 06:38:33;;;;;;;1.40;1.30;;;20.70;39.80;;;;;;5000832;28;20963;-59
2022/05/28 06:40:59;;;;;;;1.30;1.20;;;20.70;39.80;;;;;;5005521;28;20803;-58
2022/05/28 06:43:25;;;;;;;1.30;1.20;;;20.70;39.80;;;;;;4994863;28;20454;-59
2022/05/28 06:45:51;;;;;;;1.63;1.13;;;20.70;39.80;;;;;;4995485;28;20469;-58
2022/05/28 06:48:16;;;;;;;4.23;1.77;;;20.70;39.80;;;;;;4999349;28;20545;-59
2022/05/28 06:53:48;;;;;;;1.23;1.13;;;20.70;39.80;;;;;;4991427;28;20222;-59
2022/05/28 06:56:16;;;;;;;1.20;1.00;;;20.70;39.90;;;;;;4998139;28;20842;-58
2022/05/28 06:58:43;;;;;;;1.70;1.17;;;20.70;39.80;;;;;;5001579;28;20521;-57
2022/05/28 07:01:14;;;;;;;2.70;1.30;;;20.70;39.80;;;;;;5000420;28;20923;-57
2022/05/28 07:03:40;;;;;;;2.67;1.10;;;20.70;39.80;;;;;;4994851;28;20501;-57
2022/05/28 07:06:06;;;;;;;1.37;1.20;;;20.70;39.80;;;;;;5003886;28;20421;-57
2022/05/28 07:08:32;;;;;;;1.33;1.13;;;20.70;39.80;;;;;;4998681;28;20483;-58
2022/05/28 07:11:00;;;;;;;1.40;1.20;;;20.70;39.80;;;;;;4994938;28;20441;-57
2022/05/28 07:13:27;;;;;;;2.03;1.20;;;20.70;39.80;;;;;;5003832;28;20438;-57
2022/05/28 07:15:53;;;;;;;3.80;1.20;;;20.80;39.90;;;;;;4999325;28;20966;-57
2022/05/28 07:18:19;;;;;;;4.73;1.00;;;20.80;39.30;;;;;;4996577;28;20459;-58
2022/05/28 07:20:46;;;;;;;3.07;1.40;;;20.80;38.80;;;;;;5001648;28;20259;-58
2022/05/28 07:23:18;;;;;;;1.30;1.20;;;20.90;38.50;;;;;;4995012;28;20461;-57
2022/05/28 07:25:44;;;;;;;1.53;1.03;;;20.90;38.20;;;;;;4999126;28;20416;-57
2022/05/28 07:28:27;;;;;;;1.67;1.10;;;20.90;38.00;;;;;;4999477;28;20449;-56
2022/05/28 07:30:54;;;;;;;2.27;1.20;;;20.90;37.70;;;;;;4992047;28;20474;-57
2022/05/28 07:33:20;;;;;;;6.47;1.20;;;20.90;37.50;;;;;;5002657;28;20547;-57
2022/05/28 07:35:46;;;;;;;2.17;1.20;;;21.00;37.50;;;;;;4999734;28;20935;-57
2022/05/28 07:38:12;;;;;;;2.40;1.20;;;20.90;37.20;;;;;;4997503;28;20267;-57
2022/05/28 07:40:37;;;;;;;6.00;1.20;;;20.90;37.10;;;;;;5005851;28;20442;-57
2022/05/28 07:43:03;;;;;;;1.43;1.30;;;20.90;37.00;;;;;;4995019;28;20774;-57
2022/05/28 07:45:30;;;;;;;1.20;1.10;;;21.00;37.00;;;;;;4995065;28;20212;-57
2022/05/28 07:47:56;;;;;;;1.57;1.00;;;20.90;37.00;;;;;;4995997;28;20738;-57
2022/05/28 07:50:22;;;;;;;1.33;1.23;;;20.90;37.20;;;;;;4994716;28;20539;-57
2022/05/28 07:52:48;;;;;;;1.27;0.90;;;20.90;37.40;;;;;;4994848;28;20229;-57
2022/05/28 07:55:14;;;;;;;1.20;0.97;;;20.90;37.50;;;;;;5004138;28;20229;-57
2022/05/28 07:57:40;;;;;;;2.40;1.10;;;20.90;37.70;;;;;;4997095;28;20857;-57
2022/05/28 08:00:07;;;;;;;1.47;0.90;;;20.90;37.90;;;;;;5006765;28;20688;-57
2022/05/28 08:02:32;;;;;;;1.10;1.00;;;20.90;38.10;;;;;;4998445;28;20442;-57
2022/05/28 08:04:58;;;;;;;1.00;0.90;;;20.90;38.20;;;;;;4997901;28;20453;-57
2022/05/28 08:07:23;;;;;;;1.20;1.00;;;20.90;38.40;;;;;;4995785;28;20227;-57
2022/05/28 08:09:49;;;;;;;1.23;1.00;;;20.90;38.50;;;;;;4999443;28;20228;-57
2022/05/28 08:12:15;;;;;;;1.07;0.97;;;20.90;38.70;;;;;;4997232;28;20244;-57
2022/05/28 08:14:40;;;;;;;1.50;1.00;;;20.90;38.80;;;;;;4993718;28;20630;-56
2022/05/28 08:17:06;;;;;;;1.03;0.93;;;20.90;39.00;;;;;;4997298;28;20232;-57
2022/05/28 08:19:32;;;;;;;1.73;1.23;;;20.90;39.10;;;;;;5003624;28;20316;-57
2022/05/28 08:24:42;;;;;;;1.00;0.90;;;20.90;39.20;;;;;;4996289;28;21000;-57
2022/05/28 08:27:08;;;;;;;1.40;0.90;;;20.90;39.40;;;;;;5006561;28;20515;-58
2022/05/28 08:29:33;;;;;;;1.43;1.00;;;20.90;39.50;;;;;;5001405;28;20248;-58
2022/05/28 08:31:59;;;;;;;2.80;0.90;;;20.90;39.50;;;;;;4997105;28;20667;-57
2022/05/28 08:34:25;;;;;;;1.00;0.90;;;20.90;39.60;;;;;;5006919;28;20221;-57
2022/05/28 08:36:50;;;;;;;1.10;1.00;;;20.90;40.50;;;;;;5003771;28;20219;-57
2022/05/28 08:39:16;;;;;;;1.93;1.33;;;20.90;39.80;;;;;;5002583;28;20278;-57
2022/05/28 08:41:48;;;;;;;4.40;1.63;;;20.90;39.90;;;;;;5003420;28;20627;-57
2022/05/28 08:44:15;;;;;;;2.07;1.80;;;20.90;40.00;;;;;;4999293;28;20221;-59
2022/05/28 08:46:43;;;;;;;2.47;1.40;;;20.90;40.00;;;;;;4980373;28;20478;-60
2022/05/28 08:49:12;;;;;;;2.03;1.20;;;20.90;40.00;;;;;;4983223;28;20480;-60
2022/05/28 08:51:52;;;;;;;3.10;1.87;;;20.90;40.00;;;;;;4983562;28;20503;-62
2022/05/28 08:54:36;;;;;;;2.30;1.70;;;20.90;40.00;;;;;;5012417;28;20440;-60
2022/05/28 08:57:13;;;;;;;5.10;2.20;;;20.90;40.00;;;;;;5003381;28;20461;-59
2022/05/28 08:59:53;;;;;;;2.80;2.40;;;20.90;40.00;;;;;;5002948;28;20465;-59
2022/05/28 09:02:39;;;;;;;4.07;2.73;;;20.90;40.10;;;;;;5002216;28;20958;-60
2022/05/28 09:05:29;;;;;;;9.80;2.50;;;20.90;40.00;;;;;;4997839;28;20454;-60
2022/05/28 09:08:03;;;;;;;3.60;2.70;;;20.90;40.00;;;;;;5000204;28;20482;-60
2022/05/28 09:10:37;;;;;;;3.30;2.10;;;20.90;40.00;;;;;;5004319;28;20511;-60
2022/05/28 09:13:43;;;;;;;3.67;2.47;;;20.90;40.00;;;;;;5006615;28;20871;-60
2022/05/28 09:16:19;;;;;;;3.43;2.30;;;20.90;40.00;;;;;;4997695;28;20465;-60
2022/05/28 09:18:47;;;;;;;2.50;2.40;;;20.90;40.00;;;;;;5000964;28;20461;-60
2022/05/28 09:21:15;;;;;;;2.57;2.20;;;20.90;40.00;;;;;;4997569;28;20446;-59
2022/05/28 09:23:48;;;;;;;2.10;1.90;;;20.90;40.00;;;;;;5002816;28;20445;-60
2022/05/28 09:26:19;;;;;;;1.83;1.70;;;20.90;40.00;;;;;;5003325;28;20420;-60
2022/05/28 09:28:56;;;;;;;2.60;2.10;;;20.90;40.00;;;;;;4998242;28;21197;-61
2022/05/28 09:31:48;;;;;;;3.30;2.20;;;20.90;40.00;;;;;;5004671;28;20527;-60
2022/05/28 09:34:49;;;;;;;2.93;2.50;;;20.80;39.90;;;;;;4999155;28;20457;-60
2022/05/28 09:37:38;;;;;;;2.30;2.10;;;20.80;39.90;;;;;;4975887;28;20485;-61
2022/05/28 09:40:06;;;;;;;2.03;1.90;;;20.80;39.90;;;;;;4984016;28;20477;-60
2022/05/28 09:43:01;;;;;;;2.43;2.23;;;20.90;40.40;;;;;;4981148;28;20446;-60
2022/05/28 09:45:46;;;;;;;3.93;1.87;;;20.80;39.90;;;;;;4981356;28;20443;-60
2022/05/28 09:48:23;;;;;;;1.90;1.80;;;20.80;39.90;;;;;;4983002;28;20803;-60
2022/05/28 09:50:50;;;;;;;1.73;1.50;;;20.80;39.90;;;;;;4981447;28;20462;-60
2022/05/28 09:56:23;;;;;;;2.23;1.93;;;20.80;39.90;;;;;;4981029;28;20465;-60
2022/05/28 09:58:49;;;;;;;2.10;1.90;;;20.80;39.80;;;;;;4978940;28;20557;-60
2022/05/28 10:01:23;;;;;;;2.17;1.97;;;20.80;39.80;;;;;;4981801;28;20549;-61
2022/05/28 10:06:48;;;;;;;2.00;1.80;;;20.80;39.80;;;;;;4999563;28;20936;-60
2022/05/28 10:09:23;;;;;;;1.97;1.40;;;20.80;39.90;;;;;;5000135;28;20457;-59
2022/05/28 10:11:51;;;;;;;1.50;1.40;;;20.80;39.80;;;;;;4989273;28;20548;-60
2022/05/28 10:14:16;;;;;;;2.60;1.80;;;20.80;39.80;;;;;;5000383;28;20767;-60
2022/05/28 10:16:46;;;;;;;1.90;1.70;;;20.80;39.80;;;;;;4998363;28;21061;-59
2022/05/28 10:19:32;;;;;;;2.20;1.40;;;20.80;39.80;;;;;;5000089;28;20225;-60
2022/05/28 10:22:01;;;;;;;2.30;1.63;;;20.80;39.80;;;;;;4998980;28;20457;-59
2022/05/28 10:24:30;;;;;;;1.97;1.63;;;20.80;39.90;;;;;;5000374;28;20461;-60
2022/05/28 10:26:58;;;;;;;1.37;1.27;;;20.80;39.80;;;;;;4997289;28;20469;-60
2022/05/28 10:29:40;;;;;;;1.50;1.40;;;20.80;39.70;;;;;;4999357;28;20454;-60
2022/05/28 10:32:26;;;;;;;2.00;1.80;;;20.70;39.70;;;;;;4998855;28;20456;-59
2022/05/28 10:35:01;;;;;;;2.17;1.40;;;20.70;39.70;;;;;;4997833;28;20426;-60
2022/05/28 10:37:26;;;;;;;1.53;1.43;;;20.70;39.80;;;;;;4998652;28;20996;-59
2022/05/28 10:40:08;;;;;;;14.67;2.03;;;20.70;39.70;;;;;;5000410;28;20537;-61
2022/05/28 10:42:34;;;;;;;2.47;1.40;;;20.70;39.60;;;;;;5001006;28;20231;-60
2022/05/28 10:45:00;;;;;;;2.00;1.50;;;20.70;39.70;;;;;;5000181;28;20491;-60
2022/05/28 10:47:41;;;;;;;3.03;1.67;;;20.70;39.60;;;;;;4997683;28;21201;-60
2022/05/28 10:50:31;;;;;;;1.60;1.50;;;20.70;39.60;;;;;;4996023;28;20220;-59
2022/05/28 10:53:13;;;;;;;1.40;1.30;;;20.70;39.60;;;;;;4995603;28;20452;-59
2022/05/28 10:55:45;;;;;;;2.33;1.53;;;20.70;39.60;;;;;;4995105;28;20468;-59
2022/05/28 10:58:47;;;;;;;1.63;1.50;;;20.70;39.50;;;;;;4999405;28;20469;-59
2022/05/28 11:01:25;;;;;;;3.40;1.50;;;20.70;39.70;;;;;;5001814;28;21377;-59
2022/05/28 11:04:07;;;;;;;4.50;1.23;;;20.70;39.80;;;;;;5001989;28;20448;-59
2022/05/28 11:07:04;;;;;;;1.77;1.40;;;20.70;39.80;;;;;;4999760;28;20420;-60
2022/05/28 11:09:41;;;;;;;1.60;1.20;;;20.70;39.80;;;;;;4998471;28;20524;-58
2022/05/28 11:12:22;;;;;;;1.13;1.03;;;20.70;39.80;;;;;;5003441;28;20445;-59
2022/05/28 11:15:09;;;;;;;1.20;1.10;;;20.70;39.80;;;;;;4992965;28;20433;-59
2022/05/28 11:18:11;;;;;;;1.40;1.30;;;20.70;39.80;;;;;;4998452;28;20457;-58
2022/05/28 11:20:56;;;;;;;1.33;1.23;;;20.70;39.80;;;;;;5000110;28;20445;-58
2022/05/28 11:23:30;;;;;;;1.20;1.10;;;20.70;39.80;;;;;;5010319;28;20426;-58
2022/05/28 11:26:17;;;;;;;1.60;1.50;;;20.70;39.80;;;;;;5001186;28;20458;-58
2022/05/28 11:28:55;;;;;;;1.20;1.10;;;20.70;39.80;;;;;;4999536;28;20440;-59
2022/05/28 11:31:34;;;;;;;1.50;1.40;;;20.70;39.80;;;;;;4998543;28;20437;-58
2022/05/28 11:34:09;;;;;;;1.27;1.17;;;20.70;39.80;;;;;;5001093;28;20844;-59
2022/05/28 11:36:43;;;;;;;1.50;1.40;;;20.70;39.80;;;;;;5001949;28;20816;-58
2022/05/28 11:39:28;;;;;;;1.20;1.10;;;20.70;39.80;;;;;;5004151;28;20556;-58
2022/05/28 11:42:02;;;;;;;1.37;1.27;;;20.70;39.80;;;;;;5001561;28;21012;-58
2022/05/28 11:44:46;;;;;;;1.30;1.20;;;20.70;39.80;;;;;;5003784;28;20449;-59
2022/05/28 11:47:20;;;;;;;1.33;1.23;;;20.70;39.80;;;;;;5001352;28;20429;-58
2022/05/28 11:52:46;;;;;;;1.20;1.10;;;20.70;39.80;;;;;;5001188;28;20447;-58
2022/05/28 11:55:23;;;;;;;1.80;1.30;;;20.70;39.80;;;;;;5004155;28;20441;-58
2022/05/28 11:58:00;;;;;;;1.70;1.47;;;20.70;39.80;;;;;;4999297;28;20525;-59
2022/05/28 12:00:30;;;;;;;1.60;1.20;;;20.70;39.80;;;;;;5000995;28;20934;-59
2022/05/28 12:03:02;;;;;;;2.00;1.13;;;20.70;39.80;;;;;;5000379;28;20454;-59
2022/05/28 12:05:48;;;;;;;1.23;1.13;;;20.70;39.80;;;;;;5005022;28;20519;-58
2022/05/28 12:08:38;;;;;;;3.00;1.60;;;20.70;39.80;;;;;;5002441;28;20453;-59
2022/05/28 12:11:21;;;;;;;1.63;1.30;;;20.70;39.80;;;;;;5003857;28;20490;-60
2022/05/28 12:13:53;;;;;;;1.20;1.10;;;20.70;39.80;;;;;;4988360;28;20929;-60
2022/05/28 12:16:21;;;;;;;4.13;1.30;;;20.70;39.80;;;;;;5004152;28;20453;-60
2022/05/28 12:19:05;;;;;;;1.70;1.20;;;20.70;39.90;;;;;;5002782;28;20468;-60
2022/05/28 12:21:39;;;;;;;1.70;1.30;;;20.70;39.80;;;;;;4996899;28;20453;-59
2022/05/28 12:24:19;;;;;;;1.07;1.00;;;20.70;39.80;;;;;;5001912;28;20415;-59
2022/05/28 12:30:00;;;;;;;1.30;1.20;;;20.70;40.00;;;;;;5003644;28;20456;-59
2022/05/28 12:32:42;;;;;;;1.33;1.23;;;20.70;40.10;;;;;;5003630;28;20507;-59
2022/05/28 12:35:24;;;;;;;1.43;1.33;;;20.70;40.10;;;;;;5004649;28;20458;-59
2022/05/28 12:38:01;;;;;;;1.63;1.10;;;20.70;40.20;;;;;;5004162;28;20555;-60
2022/05/28 12:40:53;;;;;;;1.30;1.20;;;20.70;40.20;;;;;;5004343;28;20436;-60
2022/05/28 12:43:30;;;;;;;1.30;1.10;;;20.70;40.30;;;;;;4980709;28;20459;-59
2022/05/28 12:45:58;;;;;;;1.20;1.10;;;20.70;40.30;;;;;;4983410;28;20458;-59
2022/05/28 12:48:25;;;;;;;1.23;1.13;;;20.70;40.30;;;;;;4981472;28;20497;-59
2022/05/28 12:51:18;;;;;;;1.63;1.30;;;20.70;40.40;;;;;;4981247;28;20444;-59
2022/05/28 12:54:04;;;;;;;1.40;1.30;;;20.70;40.30;;;;;;5003965;28;20464;-58
2022/05/28 12:56:32;;;;;;;1.33;1.23;;;20.70;40.40;;;;;;5002478;28;20458;-58
2022/05/28 12:59:16;;;;;;;3.63;1.13;;;20.70;40.90;;;;;;4999427;28;20677;-58
2022/05/28 13:01:57;;;;;;;1.03;1.00;;;20.70;40.50;;;;;;5001159;28;20451;-58
2022/05/28 13:04:28;;;;;;;3.47;1.50;;;20.70;40.40;;;;;;5002639;28;20435;-58
2022/05/28 13:06:58;;;;;;;1.80;1.47;;;20.70;40.40;;;;;;5003388;28;20448;-57
2022/05/28 13:09:29;;;;;;;2.50;1.20;;;20.70;40.50;;;;;;4999087;28;20485;-58
2022/05/28 13:12:19;;;;;;;4.93;1.37;;;20.70;40.50;;;;;;5005003;28;20901;-58
2022/05/28 13:15:27;;;;;;;1.90;1.33;;;20.70;40.50;;;;;;5000356;28;20970;-59
2022/05/28 13:17:56;;;;;;;3.77;2.00;;;20.70;40.50;;;;;;4988765;28;20433;-58
2022/05/28 13:20:47;;;;;;;2.03;1.43;;;20.70;40.40;;;;;;5000831;28;20966;-58
2022/05/28 13:23:35;;;;;;;2.13;1.07;;;20.70;40.30;;;;;;5000678;28;20449;-58
2022/05/28 13:26:24;;;;;;;1.50;1.10;;;20.70;40.30;;;;;;5002141;28;20991;-58